Time;durP1;ratioP1;P1;durP2;ratioP2;P2;SDS_P1;SDS_P2;PMS_P1;PMS_P2;Temp;Humidity;BMP_temperature;BMP_pressure;BME280_temperature;BME280_humidity;BME280_pressure;Samples;Min_cycle;Max_cycle;Signal;HPM_P1;HPM_P2
2023/11/22 07:02:32;;;;;;;;;27.50;25.50;;;;;9.70;74.31;102479.66;4928726;24;45315;-67
2023/11/22 07:04:58;;;;;;;;;23.25;20.25;;;;;9.73;75.16;102482.31;4834295;29;45319;-67
2023/11/22 07:07:25;;;;;;;;;25.25;20.50;;;;;9.68;74.63;102475.22;4845637;29;47649;-66
2023/11/22 07:09:50;;;;;;;;;22.00;20.00;;;;;9.63;74.75;102485.91;4841353;29;45752;-66
2023/11/22 07:12:16;;;;;;;;;19.50;15.75;;;;;9.63;74.80;102483.22;4846344;29;45401;-66
2023/11/22 07:14:43;;;;;;;;;20.75;18.50;;;;;9.69;75.48;102491.22;4845828;29;45471;-67
2023/11/22 07:18:09;;;;;;;;;;;;;;;;;;;;;
2023/11/22 07:20:55;;;;;;;;;;;;;;;;;;;;;
2023/11/22 07:23:45;;;;;;;;;;;;;;;;;;;;;
2023/11/22 07:26:15;;;;;;;;;24.00;18.25;;;;;9.73;75.42;102511.66;4845569;29;72849;-64
2023/11/22 07:29:31;;;;;;;;;;;;;;;;;;;;;
2023/11/22 07:32:24;;;;;;;;;28.25;25.50;;;;;9.35;75.76;102480.56;4844642;29;71314;-64
2023/11/22 07:37:54;;;;;;;;;30.25;21.25;;;;;9.40;74.93;102509.88;4846589;29;46155;-64
2023/11/22 07:40:45;;;;;;;;;28.75;24.75;;;;;9.58;74.90;102533.88;4849733;29;47079;-64
2023/11/22 07:43:47;;;;;;;;;;;;;;;;;;;;;
2023/11/22 07:46:29;;;;;;;;;;;;;;;;;;;;;
2023/11/22 07:49:13;;;;;;;;;;;;;;;;;;;;;
2023/11/22 07:51:43;;;;;;;;;31.25;29.25;;;;;9.39;75.95;102540.97;4847412;29;75255;-62
2023/11/22 07:54:21;;;;;;;;;;;;;;;;;;;;;
2023/11/22 07:57:06;;;;;;;;;;;;;;;;;;;;;
2023/11/22 07:59:36;;;;;;;;;32.25;30.00;;;;;9.50;75.81;102540.09;4832849;29;71172;-64
2023/11/22 08:02:12;;;;;;;;;;;;;;;;;;;;;
2023/11/22 08:04:38;;;;;;;;;27.25;24.75;;;;;9.43;75.60;102534.75;4840229;29;72375;-64
2023/11/22 08:07:08;;;;;;;;;29.50;27.75;;;;;9.53;76.31;102548.09;4844451;29;46919;-64
2023/11/22 08:09:38;;;;;;;;;41.50;34.00;;;;;9.67;76.22;102575.66;4840075;29;45500;-64
2023/11/22 08:12:04;;;;;;;;;30.75;30.50;;;;;9.48;76.42;102524.09;4840173;29;48407;-65
2023/11/22 08:14:30;;;;;;;;;41.00;32.00;;;;;9.54;76.30;102534.78;4838266;29;45480;-64
2023/11/22 08:16:56;;;;;;;;;33.00;31.75;;;;;9.72;76.70;102560.56;4835252;29;45724;-64
2023/11/22 08:19:23;;;;;;;;;36.50;32.00;;;;;9.60;75.65;102541.88;4838439;29;46570;-64
2023/11/22 08:21:52;;;;;;;;;32.25;29.00;;;;;9.58;76.44;102549.88;4834044;29;45730;-64
2023/11/22 08:24:18;;;;;;;;;26.50;25.00;;;;;9.51;76.24;102539.22;4841569;29;45700;-63
2023/11/22 08:26:44;;;;;;;;;38.50;30.00;;;;;9.54;76.03;102556.09;4841945;29;45705;-64
2023/11/22 08:29:11;;;;;;;;;35.75;31.50;;;;;9.71;75.86;102596.13;4844576;29;45769;-64
2023/11/22 08:31:36;;;;;;;;;37.00;29.00;;;;;9.52;76.24;102570.31;4842936;29;45662;-64
2023/11/22 08:34:04;;;;;;;;;35.00;29.75;;;;;9.30;75.82;102551.63;4844941;29;45477;-64
2023/11/22 08:36:33;;;;;;;;;37.25;32.25;;;;;9.64;75.58;102615.66;4850033;29;45424;-64
2023/11/22 08:39:00;;;;;;;;;39.50;35.25;;;;;9.53;76.37;102604.97;4845225;29;45497;-64
2023/11/22 08:41:26;;;;;;;;;37.00;32.75;;;;;9.57;76.31;102622.78;4841900;29;48202;-64
2023/11/22 08:43:52;;;;;;;;;37.75;31.00;;;;;9.44;76.03;102602.31;4846247;29;45691;-64
2023/11/22 08:46:18;;;;;;;;;38.25;35.75;;;;;9.38;76.60;102595.16;4842705;29;45606;-63
2023/11/22 08:48:43;;;;;;;;;36.75;29.75;;;;;9.59;76.43;102628.09;4843606;29;45759;-63
2023/11/22 08:51:18;;;;;;;;;33.50;31.50;;;;;9.56;76.39;102625.44;4844279;29;46542;-66
2023/11/22 08:53:46;;;;;;;;;34.75;30.00;;;;;9.58;76.39;102637.88;4842106;29;45434;-64
2023/11/22 08:56:12;;;;;;;;;37.00;31.25;;;;;9.55;75.93;102634.31;4847471;29;45537;-63
2023/11/22 08:58:39;;;;;;;;;32.00;24.25;;;;;9.53;76.60;102615.63;4844551;29;45372;-63
2023/11/22 09:01:05;;;;;;;;;36.00;28.50;;;;;9.47;76.33;102594.28;4842098;29;45619;-63
2023/11/22 09:03:32;;;;;;;;;30.75;28.00;;;;;9.47;76.95;102596.94;4850817;29;45787;-63
2023/11/22 09:05:58;;;;;;;;;34.00;30.25;;;;;9.68;76.75;102620.09;4838522;29;45596;-62
2023/11/22 09:08:23;;;;;;;;;32.00;27.00;;;;;9.61;76.01;102599.66;4843235;29;45413;-62
2023/11/22 09:10:50;;;;;;;;;35.50;30.75;;;;;9.78;76.42;102616.56;4841522;29;46112;-62
2023/11/22 09:13:16;;;;;;;;;31.50;28.25;;;;;9.72;75.71;102615.66;4838999;29;45524;-62
2023/11/22 09:15:44;;;;;;;;;38.25;32.75;;;;;9.59;75.85;102606.78;4838665;29;45471;-62
2023/11/22 09:18:11;;;;;;;;;32.25;30.00;;;;;9.71;75.55;102636.13;4849597;29;45620;-63
2023/11/22 09:20:37;;;;;;;;;32.50;28.75;;;;;9.29;75.14;102581.84;4846454;29;46085;-63
2023/11/22 09:23:04;;;;;;;;;31.50;28.25;;;;;9.57;75.57;102641.44;4837772;29;45804;-63
2023/11/22 09:25:30;;;;;;;;;33.50;30.50;;;;;9.45;75.58;102612.97;4844147;29;45436;-63
2023/11/22 09:27:59;;;;;;;;;26.25;25.00;;;;;9.58;75.55;102634.31;4839227;29;46162;-63
2023/11/22 09:30:43;;;;;;;;;30.00;28.50;;;;;9.48;75.17;102620.06;4843817;29;45910;-65
2023/11/22 09:33:11;;;;;;;;;38.00;30.50;;;;;9.73;76.06;102661.00;4849279;29;45930;-61
2023/11/22 09:35:37;;;;;;;;;41.50;36.50;;;;;9.45;75.75;102604.06;4841059;29;45631;-63
2023/11/22 09:38:11;;;;;;;;;29.50;27.25;;;;;9.68;76.24;102641.44;4853511;29;45427;-63
2023/11/22 09:40:45;;;;;;;;;22.00;21.25;;;;;9.71;75.61;102643.25;4849384;29;47293;-65
2023/11/22 09:43:11;;;;;;;;;34.00;27.75;;;;;9.61;76.07;102616.53;4855049;29;45592;-63
2023/11/22 09:45:39;;;;;;;;;32.50;27.00;;;;;9.71;75.18;102617.44;4860487;29;45694;-63
2023/11/22 09:48:15;;;;;;;;;31.25;28.75;;;;;9.71;75.63;102622.78;4847068;29;45363;-63
2023/11/22 09:51:07;;;;;;;;;34.50;29.75;;;;;9.76;74.79;102645.00;4846694;29;46430;-63
2023/11/22 09:53:36;;;;;;;;;23.25;20.75;;;;;9.68;74.34;102643.22;4844089;29;45582;-64
2023/11/22 09:56:03;;;;;;;;;37.25;33.00;;;;;9.65;75.13;102644.09;4841877;29;45539;-63
2023/11/22 09:58:33;;;;;;;;;20.50;18.75;;;;;9.38;74.62;102599.63;4846195;29;45385;-63
2023/11/22 10:01:03;;;;;;;;;31.75;27.00;;;;;9.71;74.69;102659.25;4844893;29;48176;-63
2023/11/22 10:03:29;;;;;;;;;31.75;30.25;;;;;9.71;74.79;102656.56;4850735;29;45805;-63
2023/11/22 10:06:03;;;;;;;;;31.00;26.00;;;;;9.74;75.15;102656.56;4858691;29;45596;-63
2023/11/22 10:08:32;;;;;;;;;38.50;31.25;;;;;9.63;74.93;102630.75;4842351;29;45546;-63
2023/11/22 10:10:58;;;;;;;;;25.25;19.75;;;;;9.60;74.69;102619.19;4848835;29;47281;-63
2023/11/22 10:13:23;;;;;;;;;34.25;30.50;;;;;9.86;74.39;102661.03;4840886;29;45458;-63
2023/11/22 10:15:52;;;;;;;;;28.00;23.75;;;;;9.59;74.74;102621.00;4848249;29;45522;-64
2023/11/22 10:18:18;;;;;;;;;25.25;21.50;;;;;9.64;74.38;102631.66;4845578;29;45595;-66
2023/11/22 10:20:49;;;;;;;;;33.00;28.50;;;;;9.89;74.29;102675.28;4851015;29;46590;-63
2023/11/22 10:23:17;;;;;;;;;36.75;31.25;;;;;9.90;74.44;102669.03;4844833;29;45888;-64
2023/11/22 10:25:51;;;;;;;;;33.25;26.00;;;;;9.91;74.21;102664.59;4846390;29;45502;-64
2023/11/22 10:28:17;;;;;;;;;36.25;30.00;;;;;9.91;74.13;102652.16;4844395;29;45763;-64
2023/11/22 10:30:46;;;;;;;;;27.50;23.50;;;;;9.98;74.20;102675.25;4845784;29;45510;-64
2023/11/22 10:33:15;;;;;;;;;34.75;29.25;;;;;9.96;73.70;102660.16;4844656;29;45912;-64
2023/11/22 10:35:45;;;;;;;;;30.25;27.50;;;;;9.81;73.81;102642.34;4849821;29;45486;-64
2023/11/22 10:38:13;;;;;;;;;29.50;27.25;;;;;10.01;73.64;102677.94;4843407;29;47061;-64
2023/11/22 10:40:38;;;;;;;;;23.75;22.00;;;;;10.04;73.70;102673.50;4837884;29;46196;-64
2023/11/22 10:43:06;;;;;;;;;24.50;21.00;;;;;10.02;73.06;102671.72;4848218;29;70434;-64
2023/11/22 10:45:32;;;;;;;;;31.50;28.00;;;;;10.08;73.60;102673.50;4845805;29;45547;-64
2023/11/22 10:47:59;;;;;;;;;28.75;27.00;;;;;10.09;73.32;102667.28;4845399;29;45398;-64
2023/11/22 10:50:24;;;;;;;;;30.00;24.50;;;;;10.10;73.69;102661.03;4850357;29;45891;-64
2023/11/22 10:52:55;;;;;;;;;30.75;29.25;;;;;10.11;73.72;102646.81;4849601;29;45421;-64
2023/11/22 10:55:26;;;;;;;;;28.75;27.25;;;;;10.17;73.52;102652.16;4854341;29;45655;-63
2023/11/22 10:57:56;;;;;;;;;24.75;22.75;;;;;10.23;73.62;102643.25;4858323;29;45643;-64
2023/11/22 11:00:24;;;;;;;;;25.00;21.50;;;;;10.09;73.07;102602.31;4845351;29;45554;-64
2023/11/22 11:02:59;;;;;;;;;21.75;19.50;;;;;10.35;72.24;102639.72;4852208;29;45486;-64
2023/11/22 11:05:30;;;;;;;;;20.75;17.25;;;;;10.34;71.56;102632.59;4846235;29;45427;-63
2023/11/22 11:08:25;;;;;;;;;27.00;26.75;;;;;10.48;72.11;102649.50;4850947;29;45520;-63
2023/11/22 11:10:51;;;;;;;;;28.75;23.25;;;;;10.37;72.03;102637.94;4852457;29;45511;-63
2023/11/22 11:13:18;;;;;;;;;23.50;22.75;;;;;10.45;71.88;102644.16;4845404;29;45317;-63
2023/11/22 11:15:44;;;;;;;;;27.50;24.25;;;;;10.38;72.61;102621.03;4851084;29;45638;-64
2023/11/22 11:18:15;;;;;;;;;30.00;26.25;;;;;10.51;72.17;102640.59;4823337;29;45673;-66
2023/11/22 11:20:53;;;;;;;;;26.50;23.50;;;;;10.40;71.57;102626.38;4847000;29;47093;-65
2023/11/22 11:23:30;;;;;;;;;29.50;28.00;;;;;10.66;71.89;102664.59;4847166;29;45863;-65
2023/11/22 11:26:03;;;;;;;;;27.75;23.00;;;;;10.51;71.85;102632.59;4827330;29;45608;-65
2023/11/22 11:28:49;;;;;;;;;24.25;22.25;;;;;10.64;71.42;102649.44;4843678;29;45414;-65
2023/11/22 11:31:43;;;;;;;;;20.75;18.00;;;;;10.65;71.59;102630.75;4841962;29;46401;-65
2023/11/22 11:34:08;;;;;;;;;23.50;18.75;;;;;10.80;69.93;102650.31;4845109;29;45519;-65
2023/11/22 11:36:47;;;;;;;;;;;;;;;;;;;;;
2023/11/22 11:39:17;;;;;;;;;23.00;19.25;;;;;10.63;70.07;102595.16;4844742;29;71235;-65
2023/11/22 11:41:43;;;;;;;;;28.00;24.00;;;;;10.93;70.48;102628.88;4851898;29;47100;-65
2023/11/22 11:44:21;;;;;;;;;23.00;18.75;;;;;10.78;70.12;102585.34;4852886;29;45479;-65
2023/11/22 11:46:46;;;;;;;;;20.75;17.75;;;;;11.07;69.13;102630.63;4844292;29;45429;-65
2023/11/22 11:49:39;;;;;;;;;;;;;;;;;;;;;
2023/11/22 11:52:07;;;;;;;;;13.50;12.25;;;;;10.85;68.22;102573.72;4842890;29;75222;-65
2023/11/22 11:54:36;;;;;;;;;16.50;11.75;;;;;11.02;68.37;102595.88;4842823;29;45742;-65
2023/11/22 11:57:01;;;;;;;;;17.25;17.25;;;;;10.95;67.32;102580.78;4855866;29;45423;-65
2023/11/22 11:59:29;;;;;;;;;17.50;15.25;;;;;11.17;67.91;102616.31;4844847;29;45373;-65
2023/11/22 12:01:56;;;;;;;;;19.50;15.50;;;;;11.16;67.66;102601.19;4850432;29;47213;-63
2023/11/22 12:04:24;;;;;;;;;16.75;12.00;;;;;10.96;66.81;102565.63;4840517;29;46187;-63
2023/11/22 12:06:53;;;;;;;;;12.00;12.00;;;;;11.02;67.22;102569.16;4843527;29;45531;-63
2023/11/22 12:09:33;;;;;;;;;17.25;16.00;;;;;11.23;66.63;102591.34;4840716;29;46075;-63
2023/11/22 12:12:01;;;;;;;;;10.50;10.50;;;;;11.11;65.79;102577.16;4836234;29;46705;-63
2023/11/22 12:14:30;;;;;;;;;11.25;10.25;;;;;11.02;65.85;102570.97;4845462;29;45832;-63
2023/11/22 12:16:59;;;;;;;;;10.25;9.75;;;;;11.13;64.96;102594.06;4844582;29;45647;-63
2023/11/22 12:19:26;;;;;;;;;17.00;10.25;;;;;11.11;64.81;102593.19;4841900;29;45287;-63
2023/11/22 12:21:55;;;;;;;;;14.50;12.25;;;;;11.30;64.99;102618.03;4852047;29;45556;-63
2023/11/22 12:24:24;;;;;;;;;10.50;10.00;;;;;11.34;64.83;102615.34;4843392;29;45505;-63
2023/11/22 12:26:55;;;;;;;;;9.75;9.25;;;;;11.38;64.15;102622.47;4848673;29;45381;-63
2023/11/22 12:29:23;;;;;;;;;14.75;11.50;;;;;11.38;64.29;102609.09;4850428;29;45537;-63
2023/11/22 12:31:55;;;;;;;;;10.25;8.50;;;;;11.35;64.28;102610.00;4849117;29;47521;-63
2023/11/22 12:34:29;;;;;;;;;12.25;10.50;;;;;11.19;64.39;102560.19;4843988;29;46122;-63
2023/11/22 12:36:57;;;;;;;;;11.00;10.75;;;;;11.36;64.45;102589.47;4844584;29;45957;-65
2023/11/22 12:39:31;;;;;;;;;9.50;9.25;;;;;11.28;64.97;102563.69;4853643;29;45400;-65
2023/11/22 12:41:57;;;;;;;;;9.50;9.50;;;;;11.55;63.93;102603.63;4852005;29;46601;-65
2023/11/22 12:44:25;;;;;;;;;11.75;11.25;;;;;11.21;64.15;102540.56;4854687;29;45436;-66
2023/11/22 12:46:56;;;;;;;;;13.75;11.75;;;;;11.52;63.16;102592.94;4835893;29;45440;-66
2023/11/22 12:49:25;;;;;;;;;10.75;9.75;;;;;11.57;63.54;102605.38;4844687;29;45553;-66
2023/11/22 12:51:57;;;;;;;;;11.00;10.50;;;;;11.30;62.82;102564.56;4843763;29;48077;-66
2023/11/22 12:54:25;;;;;;;;;9.50;9.50;;;;;11.38;63.27;102572.53;4850628;29;45536;-66
2023/11/22 12:56:58;;;;;;;;;13.50;11.00;;;;;11.37;62.90;102567.19;4847999;29;45609;-66
2023/11/22 12:59:26;;;;;;;;;12.25;11.00;;;;;11.44;62.67;102572.50;4841213;29;45383;-66
2023/11/22 13:01:57;;;;;;;;;12.25;9.75;;;;;11.54;62.01;102586.69;4836248;29;47884;-66
2023/11/22 13:04:23;;;;;;;;;10.75;10.00;;;;;11.52;62.77;102592.94;4855918;29;45614;-66
2023/11/22 13:06:48;;;;;;;;;13.25;12.50;;;;;11.31;62.96;102549.44;4843601;29;45458;-64
2023/11/22 13:09:16;;;;;;;;;12.75;10.25;;;;;11.41;61.67;102550.22;4821868;29;45683;-64
2023/11/22 13:11:43;;;;;;;;;11.50;9.00;;;;;11.47;62.15;102561.75;4839338;29;46123;-64
2023/11/22 13:14:09;;;;;;;;;9.25;6.75;;;;;11.44;62.07;102566.25;4856077;29;45443;-64
2023/11/22 13:16:36;;;;;;;;;10.50;8.25;;;;;11.40;61.07;102570.75;4838146;29;45533;-64
2023/11/22 13:19:02;;;;;;;;;7.75;6.50;;;;;11.52;60.58;102609.00;4843955;29;45410;-65
2023/11/22 13:21:27;;;;;;;;;8.75;6.00;;;;;11.50;60.34;102620.59;4840970;29;45390;-63
2023/11/22 13:23:52;;;;;;;;;7.50;6.00;;;;;11.32;60.67;102580.59;4843375;29;45903;-64
2023/11/22 13:26:18;;;;;;;;;8.75;8.00;;;;;11.60;60.70;102617.88;4844742;29;45654;-65
2023/11/22 13:28:45;;;;;;;;;10.50;7.50;;;;;11.49;60.53;102592.09;4851605;29;46618;-66
2023/11/22 13:31:12;;;;;;;;;8.25;7.75;;;;;11.23;60.34;102524.53;4838183;29;47748;-66
2023/11/22 13:34:07;;;;;;;;;;;;;;;;;;;;;
2023/11/22 13:36:33;;;;;;;;;10.50;9.00;;;;;11.59;60.45;102598.22;4843455;29;67947;-65
2023/11/22 13:38:58;;;;;;;;;8.25;8.25;;;;;11.60;60.06;102604.50;4844704;29;45564;-65
2023/11/22 13:41:31;;;;;;;;;11.00;10.00;;;;;11.41;60.55;102569.84;4852326;29;46071;-66
2023/11/22 13:44:01;;;;;;;;;10.75;9.75;;;;;11.49;60.55;102580.47;4842393;29;46217;-66
2023/11/22 13:46:26;;;;;;;;;9.00;8.25;;;;;11.72;59.87;102611.53;4837753;29;45640;-66
2023/11/22 13:48:52;;;;;;;;;5.75;5.75;;;;;11.47;59.26;102575.13;4841068;29;45562;-66
2023/11/22 13:51:25;;;;;;;;;11.00;8.00;;;;;11.59;60.34;102579.50;4840705;29;48599;-66
2023/11/22 13:53:53;;;;;;;;;10.50;9.50;;;;;11.74;59.49;102607.94;4846041;29;45745;-66
2023/11/22 13:56:21;;;;;;;;;10.00;7.25;;;;;11.48;59.71;102558.19;4842009;29;45500;-66
2023/11/22 13:58:47;;;;;;;;;11.50;10.00;;;;;11.64;59.50;102579.47;4819971;29;46811;-66
2023/11/22 14:01:16;;;;;;;;;12.00;10.75;;;;;11.65;60.19;102570.56;4836972;29;49089;-65
2023/11/22 14:03:42;;;;;;;;;11.50;10.75;;;;;11.61;60.28;102556.34;4823308;29;46713;-64
2023/11/22 14:06:13;;;;;;;;;11.00;11.00;;;;;11.72;61.08;102574.09;4847865;29;45805;-63
2023/11/22 14:08:48;;;;;;;;;9.50;9.50;;;;;11.68;60.49;102562.53;4835701;29;45939;-64
2023/11/22 14:11:21;;;;;;;;;12.50;10.25;;;;;11.78;60.54;102574.03;4841129;29;46200;-64
2023/11/22 14:13:47;;;;;;;;;10.00;10.00;;;;;11.62;61.32;102542.03;4842392;29;45577;-63
2023/11/22 14:16:19;;;;;;;;;10.25;10.25;;;;;11.54;61.04;102519.81;4837732;29;45614;-63
2023/11/22 14:18:49;;;;;;;;;6.00;4.75;;;;;11.72;60.14;102534.84;4838736;29;45752;-63
2023/11/22 14:24:22;;;;;;;;;;;;;;;;;;;;;
2023/11/22 14:27:02;;;;;;;;;;;;;;;;;;;;;
2023/11/22 14:30:13;;;;;;;;;;;;;;;;;;;;;
2023/11/22 14:35:35;;;;;;;;;12.00;11.50;;;;;11.89;60.54;102561.44;4836727;29;45347;-63
2023/11/22 14:38:03;;;;;;;;;5.50;4.75;;;;;11.87;60.58;102550.75;4847510;29;45321;-63
2023/11/22 14:41:13;;;;;;;;;;;;;;;;;;;;;
2023/11/22 14:44:09;;;;;;;;;;;;;;;;;;;;;
2023/11/22 14:47:05;;;;;;;;;9.75;9.00;;;;;11.91;60.59;102572.13;4846645;29;45565;-63
2023/11/22 14:49:35;;;;;;;;;6.50;5.75;;;;;11.96;60.17;102551.59;4843719;29;45422;-63
2023/11/22 14:52:23;;;;;;;;;;;;;;;;;;;;;
2023/11/22 14:54:55;;;;;;;;;8.75;6.00;;;;;12.01;59.17;102557.78;4849499;29;73698;-64
2023/11/22 14:57:20;;;;;;;;;7.00;7.00;;;;;11.85;60.02;102531.16;4838281;29;45874;-63
2023/11/22 14:59:50;;;;;;;;;9.50;8.75;;;;;11.85;60.31;102533.81;4840817;29;45527;-63
2023/11/22 15:02:16;;;;;;;;;9.75;9.50;;;;;12.00;60.17;102543.53;4841738;29;45363;-62
2023/11/22 15:04:42;;;;;;;;;11.00;6.75;;;;;11.84;59.48;102508.00;4836681;29;47180;-62
2023/11/22 15:07:07;;;;;;;;;11.00;11.00;;;;;11.94;59.76;102527.53;4860363;29;45750;-63
2023/11/22 15:09:33;;;;;;;;;5.75;5.75;;;;;11.89;60.33;102529.31;4835395;29;45471;-63
2023/11/22 15:12:03;;;;;;;;;7.25;7.25;;;;;12.00;60.47;102530.16;4865270;29;46956;-63
2023/11/22 15:14:29;;;;;;;;;7.50;6.00;;;;;11.83;59.46;102511.56;4839750;29;45523;-63
2023/11/22 15:16:54;;;;;;;;;7.25;7.25;;;;;11.73;58.72;102516.97;4858697;29;45487;-63
2023/11/22 15:19:24;;;;;;;;;8.25;5.75;;;;;11.84;58.52;102553.47;4833702;29;45312;-64
2023/11/22 15:21:52;;;;;;;;;6.00;6.00;;;;;11.77;58.74;102553.53;4852648;29;45528;-63
2023/11/22 15:24:17;;;;;;;;;5.00;5.00;;;;;11.59;59.38;102518.00;4838078;29;46225;-63
2023/11/22 15:26:43;;;;;;;;;5.75;5.50;;;;;11.78;58.77;102564.22;4852103;29;45406;-63
2023/11/22 15:29:08;;;;;;;;;9.50;6.75;;;;;11.63;59.38;102538.47;4841533;29;45564;-63
2023/11/22 15:31:34;;;;;;;;;8.00;6.00;;;;;11.60;59.54;102527.81;4852614;29;45410;-63
2023/11/22 15:34:00;;;;;;;;;7.75;7.75;;;;;11.73;60.56;102539.28;4837811;29;46090;-63
2023/11/22 15:36:26;;;;;;;;;12.00;10.25;;;;;11.88;59.63;102567.72;4843012;29;45344;-63
2023/11/22 15:38:51;;;;;;;;;6.00;6.00;;;;;11.96;59.19;102587.31;4832093;29;45859;-63
2023/11/22 15:41:17;;;;;;;;;10.25;7.50;;;;;11.78;58.90;102563.34;4844483;29;45697;-63
2023/11/22 15:43:43;;;;;;;;;5.25;5.00;;;;;11.71;59.43;102562.50;4843658;29;47134;-63
2023/11/22 15:46:18;;;;;;;;;7.50;7.50;;;;;11.83;59.60;102573.09;4842751;29;45462;-63
2023/11/22 15:48:44;;;;;;;;;11.25;9.00;;;;;11.64;59.72;102559.00;4830748;29;45617;-63
2023/11/22 15:51:11;;;;;;;;;9.50;6.00;;;;;11.84;59.62;102592.69;4845595;29;45465;-64
2023/11/22 15:53:37;;;;;;;;;7.25;6.75;;;;;11.72;60.06;102580.31;4845082;29;48573;-63
2023/11/22 15:56:07;;;;;;;;;7.50;7.50;;;;;11.66;60.21;102578.59;4842506;29;45880;-64
2023/11/22 15:58:33;;;;;;;;;5.25;5.25;;;;;11.83;60.35;102607.88;4834112;29;45349;-64
2023/11/22 16:01:01;;;;;;;;;6.00;6.00;;;;;11.71;61.12;102575.88;4842231;29;45479;-63
2023/11/22 16:03:26;;;;;;;;;9.00;6.50;;;;;11.79;60.66;102592.72;4847557;29;45528;-64
2023/11/22 16:05:53;;;;;;;;;10.75;10.75;;;;;11.89;60.24;102617.63;4837456;29;45923;-64
2023/11/22 16:08:19;;;;;;;;;8.00;6.00;;;;;11.79;60.62;102614.13;4850110;29;48894;-63
2023/11/22 16:10:47;;;;;;;;;13.00;11.50;;;;;11.58;61.17;102585.78;4849575;29;45437;-63
2023/11/22 16:13:13;;;;;;;;;11.50;11.50;;;;;11.80;60.82;102618.59;4843566;29;47506;-64
2023/11/22 16:15:42;;;;;;;;;11.25;9.50;;;;;11.80;60.90;102615.94;4842298;29;45402;-63
2023/11/22 16:18:10;;;;;;;;;10.00;10.00;;;;;11.73;60.67;102607.94;4855140;29;45496;-64
2023/11/22 16:20:36;;;;;;;;;12.50;10.25;;;;;11.79;60.29;102629.31;4845055;29;45960;-64
2023/11/22 16:23:01;;;;;;;;;11.50;10.75;;;;;11.46;60.97;102575.16;4835802;29;46301;-63
2023/11/22 16:25:27;;;;;;;;;3.75;3.75;;;;;11.56;61.20;102592.94;4840919;29;45518;-63
2023/11/22 16:27:52;;;;;;;;;9.75;8.00;;;;;11.73;61.62;102610.63;4835752;29;46033;-63
2023/11/22 16:30:18;;;;;;;;;10.50;10.00;;;;;11.40;61.35;102543.13;4842935;29;45658;-63
2023/11/22 16:32:43;;;;;;;;;9.25;6.00;;;;;11.76;60.69;102616.88;4832316;29;45613;-62
2023/11/22 16:35:10;;;;;;;;;9.50;9.50;;;;;11.67;61.15;102606.22;4836560;29;45869;-64
2023/11/22 16:37:36;;;;;;;;;10.00;7.75;;;;;11.65;61.91;102621.41;4843571;29;45861;-63
2023/11/22 16:40:08;;;;;;;;;13.25;12.00;;;;;11.49;61.68;102600.09;4844127;29;45400;-64
2023/11/22 16:42:40;;;;;;;;;10.00;9.25;;;;;11.70;61.79;102630.28;4839786;29;45671;-63
2023/11/22 16:45:06;;;;;;;;;9.00;9.00;;;;;11.60;62.13;102609.84;4839120;29;45727;-64
2023/11/22 16:47:32;;;;;;;;;12.00;9.25;;;;;11.47;61.85;102601.88;4846777;29;45541;-64
2023/11/22 16:50:00;;;;;;;;;6.75;6.75;;;;;11.75;61.46;102655.22;4847711;29;45483;-64
2023/11/22 16:52:25;;;;;;;;;8.00;7.25;;;;;11.58;61.83;102628.56;4840114;29;46212;-64
2023/11/22 16:54:52;;;;;;;;;9.00;7.00;;;;;11.61;61.87;102638.34;4845630;29;47656;-64
2023/11/22 16:57:20;;;;;;;;;15.75;12.00;;;;;11.77;61.59;102669.47;4851489;29;45636;-64
2023/11/22 16:59:46;;;;;;;;;9.75;9.75;;;;;11.58;61.98;102641.94;4840089;29;45338;-63
2023/11/22 17:02:12;;;;;;;;;10.25;8.75;;;;;11.71;61.61;102663.25;4840855;29;45771;-64
2023/11/22 17:04:41;;;;;;;;;13.50;10.75;;;;;11.58;61.90;102654.44;4842659;29;45909;-64
2023/11/22 17:07:07;;;;;;;;;10.00;9.50;;;;;11.59;61.64;102642.81;4847288;29;45624;-64
2023/11/22 17:09:34;;;;;;;;;11.00;10.00;;;;;11.62;61.86;102658.84;4842326;29;45400;-67
2023/11/22 17:12:00;;;;;;;;;13.50;10.25;;;;;11.44;62.55;102635.78;4844355;29;45839;-66
2023/11/22 17:14:25;;;;;;;;;9.75;9.75;;;;;11.59;62.42;102645.50;4844081;29;45302;-66
2023/11/22 17:16:51;;;;;;;;;10.25;10.00;;;;;11.76;62.13;102677.50;4849546;29;45589;-66
2023/11/22 17:19:16;;;;;;;;;13.00;12.00;;;;;11.74;62.17;102672.16;4852361;29;46066;-66
2023/11/22 17:21:41;;;;;;;;;13.00;12.00;;;;;11.35;62.21;102618.00;4848519;29;46085;-66
2023/11/22 17:24:09;;;;;;;;;10.25;8.25;;;;;11.63;62.36;102657.97;4855786;29;45480;-66
2023/11/22 17:26:35;;;;;;;;;12.00;12.00;;;;;11.42;62.80;102619.75;4850761;29;45559;-66
2023/11/22 17:29:01;;;;;;;;;14.50;13.75;;;;;11.44;61.97;102625.09;4847996;29;47225;-67
2023/11/22 17:31:28;;;;;;;;;10.75;9.50;;;;;11.44;62.40;102628.66;4844361;29;48300;-67
2023/11/22 17:33:54;;;;;;;;;16.00;13.00;;;;;11.37;62.77;102602.84;4841282;29;45627;-67
2023/11/22 17:36:20;;;;;;;;;17.50;12.50;;;;;11.49;63.31;102625.94;4846001;29;45338;-67
2023/11/22 17:38:45;;;;;;;;;13.75;9.50;;;;;11.41;62.50;102617.06;4838878;29;45469;-67
2023/11/22 17:41:11;;;;;;;;;12.75;11.00;;;;;11.55;62.83;102633.06;4846505;29;45551;-67
2023/11/22 17:43:37;;;;;;;;;11.00;10.00;;;;;11.44;62.82;102617.97;4851758;29;45478;-67
2023/11/22 17:46:02;;;;;;;;;9.50;9.25;;;;;11.56;63.06;102626.78;4849517;29;45559;-67
2023/11/22 17:48:28;;;;;;;;;11.75;11.50;;;;;11.61;62.80;102641.94;4843508;29;45471;-65
2023/11/22 17:50:58;;;;;;;;;11.25;10.25;;;;;11.35;62.44;102612.66;4838258;29;45972;-67
2023/11/22 17:53:25;;;;;;;;;19.50;15.50;;;;;11.54;62.79;102631.28;4845127;29;45767;-66
2023/11/22 17:55:51;;;;;;;;;22.25;18.00;;;;;11.41;63.15;102599.25;4837178;29;45686;-67
2023/11/22 17:58:17;;;;;;;;;10.75;10.50;;;;;11.38;62.83;102590.38;4844030;29;45614;-67
2023/11/22 18:00:49;;;;;;;;;14.75;12.00;;;;;11.33;63.07;102571.69;4839567;29;47042;-67
2023/11/22 18:03:15;;;;;;;;;11.25;10.50;;;;;11.58;63.18;102619.66;4850481;29;45663;-66
2023/11/22 18:05:41;;;;;;;;;12.50;11.75;;;;;11.50;63.32;102615.25;4848849;29;45460;-64
2023/11/22 18:08:06;;;;;;;;;12.25;10.00;;;;;11.49;63.49;102609.91;4847272;29;45408;-64
2023/11/22 18:10:33;;;;;;;;;9.50;6.00;;;;;11.56;63.20;102638.41;4852743;29;48384;-65
2023/11/22 18:13:03;;;;;;;;;12.50;12.25;;;;;11.49;62.89;102640.22;4835567;29;45602;-65
2023/11/22 18:15:28;;;;;;;;;12.00;12.00;;;;;11.29;63.78;102607.34;4832955;29;45644;-65
2023/11/22 18:17:56;;;;;;;;;10.75;10.25;;;;;11.38;63.71;102630.50;4841962;29;45830;-65
2023/11/22 18:20:24;;;;;;;;;11.25;11.00;;;;;11.27;63.65;102619.84;4842191;29;46722;-65
2023/11/22 18:22:50;;;;;;;;;13.75;12.50;;;;;11.30;63.69;102636.75;4851812;29;45892;-64
2023/11/22 18:25:18;;;;;;;;;16.25;11.50;;;;;11.38;63.17;102663.44;4840736;29;45857;-64
2023/11/22 18:27:46;;;;;;;;;11.50;10.75;;;;;11.42;63.76;102673.22;4834692;29;47326;-64
2023/11/22 18:30:12;;;;;;;;;13.50;13.00;;;;;11.43;63.56;102688.38;4848753;29;47512;-65
2023/11/22 18:32:37;;;;;;;;;22.50;21.25;;;;;11.26;64.02;102659.06;4837759;29;45474;-64
2023/11/22 18:35:06;;;;;;;;;17.00;17.00;;;;;11.20;64.00;102648.38;4840362;29;47192;-64
2023/11/22 18:37:31;;;;;;;;;18.75;16.25;;;;;11.38;64.46;102673.28;4842177;29;45526;-64
2023/11/22 18:39:57;;;;;;;;;16.00;15.00;;;;;11.32;64.21;102658.13;4843449;29;48132;-64
2023/11/22 18:42:23;;;;;;;;;14.50;13.50;;;;;11.15;64.30;102636.81;4837398;29;45882;-64
2023/11/22 18:44:49;;;;;;;;;15.50;15.00;;;;;11.39;64.38;102657.19;4840391;29;45563;-63
2023/11/22 18:47:14;;;;;;;;;13.50;12.75;;;;;11.07;64.29;102618.13;4843318;29;45846;-64
2023/11/22 18:49:40;;;;;;;;;17.50;15.00;;;;;11.31;64.66;102646.56;4841741;29;46915;-64
2023/11/22 18:52:07;;;;;;;;;15.75;15.50;;;;;11.30;64.65;102643.88;4841121;29;46057;-64
2023/11/22 18:54:33;;;;;;;;;17.00;14.00;;;;;11.13;64.61;102631.47;4842777;29;45424;-64
2023/11/22 18:56:58;;;;;;;;;18.00;15.50;;;;;11.19;64.94;102633.22;4841036;29;46001;-64
2023/11/22 18:59:26;;;;;;;;;17.50;12.00;;;;;11.39;64.61;102667.00;4842322;29;46119;-64
2023/11/22 19:02:13;;;;;;;;;;;;;;;;;;;;;
2023/11/22 19:05:07;;;;;;;;;20.75;17.75;;;;;11.31;64.54;102656.38;4840281;29;68637;-64